createdAt,value
2022-07-25T00:00:32.463Z,49.90
2022-07-25T00:02:59.550Z,49.90
2022-07-25T00:05:27.128Z,50.00
2022-07-25T00:07:54.418Z,49.90
2022-07-25T00:10:21.567Z,50.00
2022-07-25T00:12:48.735Z,50.00
2022-07-25T00:15:15.987Z,49.90
2022-07-25T00:17:43.176Z,49.90
2022-07-25T00:20:10.548Z,50.00
2022-07-25T00:22:37.673Z,50.00
2022-07-25T00:25:05.028Z,50.00
2022-07-25T00:27:32.138Z,49.90
2022-07-25T00:29:59.300Z,50.00
2022-07-25T00:32:26.401Z,50.00
2022-07-25T00:34:53.559Z,50.00
2022-07-25T00:37:20.693Z,50.00
2022-07-25T00:39:47.794Z,50.00
2022-07-25T00:42:14.956Z,50.00
2022-07-25T00:44:42.094Z,50.10
2022-07-25T00:47:09.198Z,50.10
2022-07-25T00:49:36.288Z,50.10
2022-07-25T00:52:04.018Z,50.10
2022-07-25T00:54:31.332Z,50.10
2022-07-25T00:56:58.454Z,50.10
2022-07-25T00:59:25.549Z,50.10
2022-07-25T01:01:53.050Z,50.10
2022-07-25T01:04:20.556Z,50.10
2022-07-25T01:06:47.719Z,50.10
2022-07-25T01:09:15.036Z,50.10
2022-07-25T01:11:42.394Z,50.10
2022-07-25T01:14:09.742Z,50.10
2022-07-25T01:16:37.135Z,50.00
2022-07-25T01:19:04.486Z,50.00
2022-07-25T01:21:31.669Z,50.00
2022-07-25T01:23:58.902Z,50.10
2022-07-25T01:26:26.154Z,50.00
2022-07-25T01:28:53.221Z,50.00
2022-07-25T01:31:20.395Z,50.00
2022-07-25T01:33:47.545Z,50.10
2022-07-25T01:36:14.754Z,50.10
2022-07-25T01:38:41.846Z,50.00
2022-07-25T01:41:09.002Z,50.10
2022-07-25T01:43:36.190Z,50.00
2022-07-25T01:46:03.407Z,50.10
2022-07-25T01:48:30.597Z,50.10
2022-07-25T01:50:57.842Z,50.10
2022-07-25T01:53:24.965Z,50.10
2022-07-25T01:55:53.340Z,50.10
2022-07-25T01:58:21.606Z,50.10
2022-07-25T02:00:49.084Z,50.10
2022-07-25T02:03:32.052Z,50.10
2022-07-25T02:06:01.563Z,50.10
2022-07-25T02:08:30.049Z,50.10
2022-07-25T02:10:57.799Z,50.20
2022-07-25T02:13:25.560Z,50.20
2022-07-25T02:15:52.770Z,50.20
2022-07-25T02:18:19.870Z,50.20
2022-07-25T02:20:47.215Z,50.20
2022-07-25T02:23:14.322Z,50.20
2022-07-25T02:25:41.537Z,50.20
2022-07-25T02:28:10.621Z,50.20
2022-07-25T02:30:38.364Z,50.10
2022-07-25T02:33:05.748Z,50.10
2022-07-25T02:35:32.992Z,50.10
2022-07-25T02:38:00.095Z,50.10
2022-07-25T02:40:27.678Z,50.10
2022-07-25T02:42:54.806Z,50.10
2022-07-25T02:45:21.973Z,50.00
2022-07-25T02:47:49.252Z,50.10
2022-07-25T02:50:16.519Z,50.10
2022-07-25T02:52:44.287Z,50.10
2022-07-25T02:55:12.410Z,50.10
2022-07-25T02:57:39.663Z,50.10
2022-07-25T03:00:08.557Z,50.10
2022-07-25T03:02:35.846Z,50.10
2022-07-25T03:05:06.169Z,50.10
2022-07-25T03:07:33.225Z,50.10
2022-07-25T03:10:00.393Z,50.10
2022-07-25T03:12:27.698Z,50.10
2022-07-25T03:14:55.102Z,50.00
2022-07-25T03:17:22.197Z,50.10
2022-07-25T03:19:49.295Z,50.10
2022-07-25T03:22:16.392Z,50.10
2022-07-25T03:24:43.884Z,50.10
2022-07-25T03:27:11.096Z,50.10
2022-07-25T03:29:38.235Z,50.10
2022-07-25T03:32:05.971Z,50.10
2022-07-25T03:34:33.241Z,50.10
2022-07-25T03:37:00.653Z,50.00
2022-07-25T03:39:29.012Z,50.10
2022-07-25T03:41:56.957Z,50.00
2022-07-25T03:44:25.599Z,50.10
2022-07-25T03:46:52.835Z,50.10
2022-07-25T03:49:20.024Z,50.00
2022-07-25T03:51:47.231Z,50.00
2022-07-25T03:54:14.473Z,50.00
2022-07-25T03:56:44.327Z,50.00
2022-07-25T03:59:14.225Z,49.90
2022-07-25T04:01:42.754Z,49.90
2022-07-25T04:04:10.509Z,50.40
2022-07-25T04:06:38.642Z,49.90
2022-07-25T04:09:06.260Z,49.80
2022-07-25T04:11:33.625Z,49.80
2022-07-25T04:14:00.840Z,49.80
2022-07-25T04:16:28.101Z,49.70
2022-07-25T04:18:56.291Z,49.70
2022-07-25T04:21:25.037Z,49.60
2022-07-25T04:23:53.026Z,49.60
2022-07-25T04:26:20.664Z,49.60
2022-07-25T04:28:47.826Z,49.60
2022-07-25T04:31:15.589Z,49.50
2022-07-25T04:33:43.336Z,49.50
2022-07-25T04:36:10.982Z,49.40
2022-07-25T04:38:38.126Z,49.40
2022-07-25T04:41:05.549Z,49.40
2022-07-25T04:43:32.746Z,49.30
2022-07-25T04:45:59.981Z,49.20
2022-07-25T04:48:27.322Z,49.20
2022-07-25T04:50:54.664Z,49.20
2022-07-25T04:53:21.996Z,49.10
2022-07-25T04:55:49.106Z,49.10
2022-07-25T04:58:16.503Z,49.00
2022-07-25T05:00:43.874Z,49.00
2022-07-25T05:03:11.278Z,48.90
2022-07-25T05:05:38.419Z,48.90
2022-07-25T05:08:05.826Z,48.80
2022-07-25T05:10:32.999Z,48.70
2022-07-25T05:13:00.149Z,48.70
2022-07-25T05:15:27.297Z,48.70
2022-07-25T05:17:54.421Z,48.80
2022-07-25T05:20:21.891Z,49.00
2022-07-25T05:22:50.031Z,49.30
2022-07-25T05:25:17.209Z,49.60
2022-07-25T05:27:44.487Z,49.30
2022-07-25T05:30:12.570Z,48.90
2022-07-25T05:32:40.822Z,48.50
2022-07-25T05:35:09.596Z,48.50
2022-07-25T05:37:37.983Z,48.50
2022-07-25T05:40:06.773Z,48.90
2022-07-25T05:42:34.113Z,49.60
2022-07-25T05:45:05.188Z,49.20
2022-07-25T05:47:35.389Z,49.30
2022-07-25T05:50:05.972Z,49.00
2022-07-25T05:52:35.338Z,49.00
2022-07-25T05:55:02.839Z,49.40
2022-07-25T05:57:30.091Z,49.50
2022-07-25T05:59:58.074Z,50.90
2022-07-25T06:02:25.344Z,51.40
2022-07-25T06:04:52.614Z,51.60
2022-07-25T06:07:19.718Z,51.90
2022-07-25T06:09:46.798Z,52.00
2022-07-25T06:12:14.237Z,52.80
2022-07-25T06:14:41.439Z,52.40
2022-07-25T06:17:10.116Z,52.70
2022-07-25T06:19:37.481Z,53.00
2022-07-25T06:22:04.606Z,53.40
2022-07-25T06:24:31.758Z,53.60
2022-07-25T06:26:58.877Z,53.50
2022-07-25T06:29:26.008Z,53.90
2022-07-25T06:31:53.801Z,53.90
2022-07-25T06:34:20.986Z,54.00
2022-07-25T06:36:48.099Z,54.10
2022-07-25T06:39:15.270Z,54.20
2022-07-25T06:41:45.477Z,54.30
2022-07-25T06:44:13.595Z,54.60
2022-07-25T06:46:41.765Z,54.70
2022-07-25T06:49:09.081Z,54.80
2022-07-25T06:51:36.320Z,55.00
2022-07-25T06:54:04.160Z,55.00
2022-07-25T06:56:33.156Z,55.20
2022-07-25T06:59:01.042Z,55.20
2022-07-25T07:01:28.223Z,55.40
2022-07-25T07:03:56.111Z,55.20
2022-07-25T07:06:23.520Z,55.60
2022-07-25T07:08:52.249Z,55.70
2022-07-25T07:11:19.509Z,56.10
2022-07-25T07:13:46.730Z,56.30
2022-07-25T07:16:15.127Z,56.40
2022-07-25T07:18:45.803Z,56.30
2022-07-25T07:21:21.365Z,56.20
2022-07-25T07:23:49.557Z,56.60
2022-07-25T07:26:22.097Z,55.90
2022-07-25T07:28:49.316Z,56.00
2022-07-25T07:31:18.525Z,55.90
2022-07-25T07:33:46.136Z,55.90
2022-07-25T07:36:13.401Z,55.90
2022-07-25T07:38:41.672Z,55.90
2022-07-25T07:41:08.797Z,56.00
2022-07-25T07:43:36.102Z,55.90
2022-07-25T07:46:03.431Z,56.60
2022-07-25T07:48:31.849Z,55.90
2022-07-25T07:51:00.711Z,55.90
2022-07-25T07:53:49.850Z,55.90
2022-07-25T07:56:19.285Z,56.00
2022-07-25T07:58:47.347Z,56.00
2022-07-25T08:01:14.590Z,56.10
2022-07-25T08:03:41.744Z,56.50
2022-07-25T08:06:08.846Z,56.80
2022-07-25T08:08:35.983Z,56.90
2022-07-25T08:11:03.755Z,57.70
2022-07-25T08:13:34.170Z,57.10
2022-07-25T08:16:01.956Z,57.40
2022-07-25T08:18:32.841Z,57.10
2022-07-25T08:21:03.114Z,57.10
2022-07-25T08:23:32.134Z,57.60
2022-07-25T08:25:59.596Z,57.10
2022-07-25T08:28:27.080Z,57.00
2022-07-25T08:30:55.039Z,56.80
2022-07-25T08:33:22.547Z,56.90
2022-07-25T08:35:55.259Z,57.00
2022-07-25T08:38:24.211Z,57.00
2022-07-25T08:40:51.971Z,56.90
2022-07-25T08:43:20.690Z,56.70
2022-07-25T08:45:50.983Z,56.50
2022-07-25T08:48:20.866Z,56.40
2022-07-25T08:50:49.298Z,56.60
2022-07-25T08:53:35.429Z,56.30
2022-07-25T08:56:13.323Z,56.30
2022-07-25T08:58:44.371Z,56.20
2022-07-25T09:01:15.202Z,56.30
2022-07-25T09:03:43.657Z,56.20
2022-07-25T09:06:20.326Z,56.30
2022-07-25T09:08:59.679Z,56.40
2022-07-25T09:11:29.580Z,56.00
2022-07-25T09:14:06.844Z,56.20
2022-07-25T09:16:41.333Z,56.10
2022-07-25T09:19:17.967Z,56.00
2022-07-25T09:21:58.006Z,56.10
2022-07-25T09:24:26.806Z,56.40
2022-07-25T09:26:56.237Z,56.60
2022-07-25T09:29:28.464Z,56.60
2022-07-25T09:31:56.930Z,56.50
2022-07-25T09:34:38.991Z,56.50
2022-07-25T09:37:08.546Z,56.20
2022-07-25T09:39:50.808Z,56.40
2022-07-25T09:42:22.326Z,56.60
2022-07-25T09:45:11.507Z,56.90
2022-07-25T09:47:54.650Z,56.90
2022-07-25T09:50:24.551Z,57.00
2022-07-25T09:52:53.725Z,57.10
2022-07-25T09:55:22.257Z,57.00
2022-07-25T09:57:50.470Z,56.90
2022-07-25T10:00:23.533Z,56.90
2022-07-25T10:03:30.508Z,56.50
2022-07-25T10:06:22.422Z,56.10
2022-07-25T10:08:51.182Z,55.80
2022-07-25T10:11:20.326Z,55.60
2022-07-25T10:13:47.528Z,55.60
2022-07-25T10:16:17.804Z,55.80
2022-07-25T10:18:54.136Z,55.30
2022-07-25T10:21:27.948Z,55.30
2022-07-25T10:24:07.835Z,55.40
2022-07-25T10:26:40.672Z,55.40
2022-07-25T10:29:10.610Z,55.60
2022-07-25T10:31:49.498Z,55.70
2022-07-25T10:34:30.984Z,55.50
2022-07-25T10:37:10.853Z,55.50
2022-07-25T10:39:40.281Z,55.70
2022-07-25T10:42:12.470Z,55.70
2022-07-25T10:44:45.312Z,55.50
2022-07-25T10:47:14.738Z,55.70
2022-07-25T10:50:06.791Z,55.80
2022-07-25T10:52:40.439Z,55.80
2022-07-25T10:55:07.995Z,55.80
2022-07-25T10:57:35.081Z,55.90
2022-07-25T11:00:07.821Z,55.90
2022-07-25T11:02:36.172Z,55.80
2022-07-25T11:05:04.992Z,56.00
2022-07-25T11:07:36.265Z,55.80
2022-07-25T11:10:05.882Z,55.90
2022-07-25T11:12:33.686Z,55.80
2022-07-25T11:15:04.122Z,55.80
2022-07-25T11:17:31.563Z,55.80
2022-07-25T11:20:03.324Z,55.70
2022-07-25T11:22:32.257Z,55.80
2022-07-25T11:25:00.287Z,55.80
2022-07-25T11:27:31.734Z,55.90
2022-07-25T11:30:17.088Z,56.00
2022-07-25T11:32:51.192Z,55.90
2022-07-25T11:35:23.110Z,56.00
2022-07-25T11:37:51.614Z,56.10
2022-07-25T11:40:20.667Z,56.30
2022-07-25T11:42:50.746Z,56.40
2022-07-25T11:45:23.510Z,56.40
2022-07-25T11:48:07.724Z,56.30
2022-07-25T11:50:37.428Z,56.50
2022-07-25T11:53:07.085Z,56.40
2022-07-25T11:55:37.524Z,56.50
2022-07-25T11:58:05.173Z,56.50
2022-07-25T12:00:39.219Z,56.70
2022-07-25T12:03:09.067Z,56.80
2022-07-25T12:05:36.831Z,56.80
2022-07-25T12:08:12.275Z,56.80
2022-07-25T12:10:40.810Z,56.40
2022-07-25T12:13:10.670Z,56.40
2022-07-25T12:15:41.475Z,56.30
2022-07-25T12:18:10.757Z,56.20
2022-07-25T12:20:43.306Z,56.20
2022-07-25T12:23:12.775Z,56.20
2022-07-25T12:25:43.097Z,56.10
2022-07-25T12:28:11.449Z,56.00
2022-07-25T12:30:40.043Z,56.00
2022-07-25T12:33:07.743Z,56.20
2022-07-25T12:35:37.448Z,56.10
2022-07-25T12:38:05.082Z,56.00
2022-07-25T12:40:33.694Z,56.20
2022-07-25T12:43:01.408Z,56.30
2022-07-25T12:45:29.487Z,56.50
2022-07-25T12:47:56.957Z,56.50
2022-07-25T12:50:26.234Z,56.50
2022-07-25T12:52:53.513Z,56.70
2022-07-25T12:55:21.834Z,56.60
2022-07-25T12:57:50.133Z,57.80
2022-07-25T13:00:20.550Z,57.30
2022-07-25T13:02:48.062Z,56.60
2022-07-25T13:05:15.505Z,55.70
2022-07-25T13:07:42.984Z,55.20
2022-07-25T13:10:11.127Z,54.80
2022-07-25T13:12:38.395Z,54.40
2022-07-25T13:15:06.114Z,54.20
2022-07-25T13:17:33.515Z,53.90
2022-07-25T13:20:01.126Z,53.80
2022-07-25T13:22:28.530Z,53.70
2022-07-25T13:24:56.001Z,53.60
2022-07-25T13:27:23.681Z,53.50
2022-07-25T13:29:54.805Z,53.40
2022-07-25T13:32:22.737Z,53.30
2022-07-25T13:34:50.100Z,53.30
2022-07-25T13:37:17.210Z,53.20
2022-07-25T13:39:44.459Z,53.10
2022-07-25T13:42:11.819Z,52.90
2022-07-25T13:44:38.979Z,52.80
2022-07-25T13:47:06.413Z,52.10
2022-07-25T13:49:34.057Z,51.50
2022-07-25T13:52:01.201Z,51.60
2022-07-25T13:54:31.563Z,52.20
2022-07-25T13:56:58.706Z,52.40
2022-07-25T13:59:25.813Z,52.60
2022-07-25T14:01:53.139Z,52.90
2022-07-25T14:04:20.270Z,53.20
2022-07-25T14:06:52.156Z,53.40
2022-07-25T14:09:21.161Z,53.50
2022-07-25T14:11:48.842Z,53.60
2022-07-25T14:14:16.028Z,53.80
2022-07-25T14:16:43.552Z,54.10
2022-07-25T14:19:10.895Z,54.40
2022-07-25T14:21:38.201Z,54.40
2022-07-25T14:24:05.557Z,54.70
2022-07-25T14:26:34.657Z,54.70
2022-07-25T14:29:03.510Z,55.00
2022-07-25T14:31:32.254Z,55.10
2022-07-25T14:33:59.418Z,55.70
2022-07-25T14:36:26.645Z,54.90
2022-07-25T14:38:53.900Z,54.70
2022-07-25T14:41:22.057Z,54.70
2022-07-25T14:43:49.675Z,54.60
2022-07-25T14:46:16.985Z,54.50
2022-07-25T14:48:44.331Z,54.40
2022-07-25T14:51:11.617Z,54.30
2022-07-25T14:53:52.766Z,56.40
2022-07-25T14:56:20.481Z,57.60
2022-07-25T14:58:47.571Z,58.70
2022-07-25T15:01:18.808Z,59.40
2022-07-25T15:03:46.149Z,60.00
2022-07-25T15:06:13.385Z,60.30
2022-07-25T15:08:40.533Z,60.60
2022-07-25T15:11:07.665Z,60.90
2022-07-25T15:13:35.045Z,60.90
2022-07-25T15:16:03.705Z,60.80
2022-07-25T15:18:32.003Z,61.00
2022-07-25T15:20:59.336Z,60.70
2022-07-25T15:23:29.748Z,60.90
2022-07-25T15:26:01.793Z,60.80
2022-07-25T15:28:30.316Z,60.80
2022-07-25T15:30:57.433Z,60.80
2022-07-25T15:33:24.678Z,60.60
2022-07-25T15:35:52.141Z,60.50
2022-07-25T15:38:20.362Z,60.10
2022-07-25T15:40:47.780Z,59.70
2022-07-25T15:43:14.856Z,59.10
2022-07-25T15:45:43.469Z,58.70
2022-07-25T15:48:11.585Z,58.10
2022-07-25T15:50:43.889Z,57.60
2022-07-25T15:53:12.361Z,57.00
2022-07-25T15:55:41.029Z,56.40
2022-07-25T15:58:09.714Z,57.40
2022-07-25T16:00:38.678Z,58.00
2022-07-25T16:03:06.920Z,58.80
2022-07-25T16:05:34.512Z,58.10
2022-07-25T16:08:02.366Z,57.30
2022-07-25T16:10:33.242Z,56.40
2022-07-25T16:13:00.821Z,55.30
2022-07-25T16:15:28.346Z,54.00
2022-07-25T16:18:01.872Z,53.20
2022-07-25T16:20:29.839Z,52.50
2022-07-25T16:22:59.317Z,51.80
2022-07-25T16:25:28.212Z,52.20
2022-07-25T16:27:55.804Z,52.90
2022-07-25T16:30:23.016Z,53.90
2022-07-25T16:32:51.147Z,53.90
2022-07-25T16:35:18.316Z,53.40
2022-07-25T16:37:45.492Z,52.60
2022-07-25T16:40:14.325Z,51.90
2022-07-25T16:42:41.608Z,51.00
2022-07-25T16:45:10.542Z,50.40
2022-07-25T16:47:39.713Z,49.70
2022-07-25T16:50:08.425Z,49.30
2022-07-25T16:52:35.686Z,49.50
2022-07-25T16:55:02.818Z,48.40
2022-07-25T16:57:33.545Z,48.00
2022-07-25T17:00:04.760Z,47.70
2022-07-25T17:02:32.406Z,47.50
2022-07-25T17:04:59.957Z,47.20
2022-07-25T17:07:27.129Z,47.10
2022-07-25T17:09:54.346Z,46.90
2022-07-25T17:12:22.077Z,46.80
2022-07-25T17:14:49.401Z,46.50
2022-07-25T17:17:16.519Z,46.50
2022-07-25T17:19:43.726Z,46.30
2022-07-25T17:22:11.121Z,46.20
2022-07-25T17:24:39.290Z,46.10
2022-07-25T17:27:07.223Z,46.00
2022-07-25T17:29:34.774Z,46.10
2022-07-25T17:32:02.279Z,46.00
2022-07-25T17:34:29.379Z,46.00
2022-07-25T17:36:57.364Z,46.10
2022-07-25T17:39:25.436Z,46.00
2022-07-25T17:41:52.721Z,45.90
2022-07-25T17:44:20.328Z,45.80
2022-07-25T17:46:50.295Z,45.70
2022-07-25T17:49:17.617Z,45.70
2022-07-25T17:51:44.864Z,45.60
2022-07-25T17:54:12.230Z,45.70
2022-07-25T17:56:39.492Z,45.80
2022-07-25T17:59:08.374Z,45.80
2022-07-25T18:01:35.546Z,45.90
2022-07-25T18:04:02.709Z,45.90
2022-07-25T18:06:30.220Z,45.90
2022-07-25T18:08:57.905Z,45.90
2022-07-25T18:11:25.144Z,45.90
2022-07-25T18:13:52.246Z,45.90
2022-07-25T18:16:19.479Z,45.90
2022-07-25T18:18:46.702Z,46.10
2022-07-25T18:21:13.789Z,46.00
2022-07-25T18:23:40.944Z,46.10
2022-07-25T18:26:09.387Z,46.20
2022-07-25T18:28:36.552Z,46.20
2022-07-25T18:31:04.645Z,46.30
2022-07-25T18:33:31.857Z,46.40
2022-07-25T18:36:01.774Z,46.50
2022-07-25T18:38:32.013Z,46.60
2022-07-25T18:41:26.552Z,46.60
2022-07-25T18:43:46.361Z,46.60
2022-07-25T18:46:15.438Z,46.70
2022-07-25T18:48:43.766Z,46.80
2022-07-25T18:51:11.531Z,46.90
2022-07-25T18:53:38.919Z,46.80
2022-07-25T18:56:06.260Z,46.90
2022-07-25T18:58:33.336Z,46.90
2022-07-25T19:01:02.885Z,46.90
2022-07-25T19:03:32.885Z,46.90
2022-07-25T19:06:03.427Z,47.00
2022-07-25T19:08:31.332Z,46.90
2022-07-25T19:10:58.446Z,46.90
2022-07-25T19:13:47.621Z,47.00
2022-07-25T19:16:12.732Z,47.10
2022-07-25T19:18:40.553Z,47.00
2022-07-25T19:21:07.732Z,47.00
2022-07-25T19:23:35.207Z,47.10
2022-07-25T19:26:03.161Z,47.00
2022-07-25T19:28:30.535Z,47.10
2022-07-25T19:30:57.883Z,47.10
2022-07-25T19:33:25.140Z,47.20
2022-07-25T19:36:02.488Z,47.10
2022-07-25T19:38:29.571Z,47.10
2022-07-25T19:40:56.749Z,47.10
2022-07-25T19:43:23.885Z,47.20
2022-07-25T19:45:51.387Z,47.20
2022-07-25T19:48:18.604Z,47.20
2022-07-25T19:50:46.259Z,47.20
2022-07-25T19:53:13.369Z,47.30
2022-07-25T19:55:40.509Z,47.30
2022-07-25T19:58:08.546Z,47.30
2022-07-25T20:00:35.845Z,47.20
2022-07-25T20:03:03.287Z,47.30
2022-07-25T20:05:30.418Z,47.30
2022-07-25T20:07:57.493Z,47.30
2022-07-25T20:10:24.859Z,47.30
2022-07-25T20:12:51.937Z,47.30
2022-07-25T20:15:19.078Z,47.40
2022-07-25T20:17:46.247Z,47.40
2022-07-25T20:20:13.490Z,47.50
2022-07-25T20:22:42.115Z,47.60
2022-07-25T20:25:11.861Z,47.60
2022-07-25T20:27:39.213Z,47.60
2022-07-25T20:30:08.103Z,47.70
2022-07-25T20:32:36.317Z,47.70
2022-07-25T20:35:05.476Z,47.70
2022-07-25T20:37:32.674Z,47.70
2022-07-25T20:39:59.839Z,47.70
2022-07-25T20:42:27.033Z,47.80
2022-07-25T20:44:54.135Z,47.80
2022-07-25T20:47:21.273Z,47.90
2022-07-25T20:49:48.417Z,47.90
2022-07-25T20:52:15.578Z,47.80
2022-07-25T20:54:43.225Z,47.90
2022-07-25T20:57:11.846Z,47.90
2022-07-25T20:59:38.962Z,48.00
2022-07-25T21:02:06.187Z,48.00
2022-07-25T21:04:33.328Z,48.10
2022-07-25T21:07:00.549Z,48.00
2022-07-25T21:09:32.381Z,48.10
2022-07-25T21:12:01.236Z,48.20
2022-07-25T21:14:28.599Z,48.70
2022-07-25T21:16:55.864Z,48.20
2022-07-25T21:19:23.058Z,48.30
2022-07-25T21:21:50.523Z,48.30
2022-07-25T21:24:17.698Z,48.40
2022-07-25T21:26:45.269Z,48.90
2022-07-25T21:29:12.657Z,48.30
2022-07-25T21:31:39.881Z,48.30
2022-07-25T21:34:07.139Z,48.40
2022-07-25T21:36:35.119Z,48.40
2022-07-25T21:39:02.265Z,48.40
2022-07-25T21:41:29.401Z,48.40
2022-07-25T21:43:57.333Z,48.40
2022-07-25T21:46:24.739Z,48.40
2022-07-25T21:49:12.292Z,48.50
2022-07-25T21:51:40.902Z,48.50
2022-07-25T21:54:08.597Z,48.60
2022-07-25T21:56:35.720Z,48.50
2022-07-25T21:59:03.023Z,48.50
2022-07-25T22:01:30.196Z,48.60
2022-07-25T22:03:57.546Z,48.60
2022-07-25T22:06:24.802Z,48.60
2022-07-25T22:08:51.940Z,48.70
2022-07-25T22:11:39.141Z,48.70
2022-07-25T22:14:06.300Z,48.70
2022-07-25T22:16:33.453Z,48.70
2022-07-25T22:19:00.750Z,48.80
2022-07-25T22:21:27.920Z,48.70
2022-07-25T22:23:55.053Z,48.80
2022-07-25T22:26:22.227Z,48.80
2022-07-25T22:28:50.788Z,48.80
2022-07-25T22:31:18.252Z,48.80
2022-07-25T22:33:45.460Z,48.80
2022-07-25T22:36:12.611Z,48.90
2022-07-25T22:38:39.794Z,48.90
2022-07-25T22:41:09.612Z,48.90
2022-07-25T22:43:56.529Z,48.90
2022-07-25T22:46:24.066Z,49.00
2022-07-25T22:48:51.248Z,49.00
2022-07-25T22:51:18.391Z,49.00
2022-07-25T22:53:45.485Z,49.00
2022-07-25T22:56:12.691Z,48.90
2022-07-25T22:58:39.839Z,49.00
2022-07-25T23:01:06.982Z,49.10
2022-07-25T23:03:35.129Z,49.00
2022-07-25T23:06:02.361Z,49.10
2022-07-25T23:08:29.464Z,49.10
2022-07-25T23:10:56.699Z,49.10
2022-07-25T23:13:23.851Z,49.10
2022-07-25T23:15:51.442Z,49.10
2022-07-25T23:18:19.368Z,49.70
2022-07-25T23:20:46.816Z,49.10
2022-07-25T23:23:14.323Z,49.10
2022-07-25T23:25:41.548Z,49.10
2022-07-25T23:28:08.674Z,49.20
2022-07-25T23:30:40.238Z,49.10
2022-07-25T23:33:08.296Z,49.10
2022-07-25T23:35:35.930Z,49.20
2022-07-25T23:38:03.486Z,49.20
2022-07-25T23:40:30.776Z,49.20
2022-07-25T23:42:58.434Z,49.20
2022-07-25T23:45:28.125Z,49.20
2022-07-25T23:47:56.969Z,49.20
2022-07-25T23:50:25.272Z,49.20
2022-07-25T23:52:52.686Z,49.20
2022-07-25T23:55:19.994Z,49.20
2022-07-25T23:57:47.269Z,49.30
